Beaumont, Belgium
Current Conditions -  °F | °C
As of 5:55 PM on Saturday 25 Oct 2014 (Local Time) from EBFS Reporting Station
Scattered Clouds Scattered Clouds  
Wind Chill: 54°   Ceiling: Unl
Heat Index: 54°   Visibility: 6mi
Dew Point: 52°   Wind: 3mph
Humidity: 94%   Direction: 220°SW
Pressure: 30.15"   Gusts: NA
Location:  50.24°N, 4.24°E
Report Text: EBFS 251555Z 22003KT 9999 FEW012 SCT028 12/11 Q1021 BLU
Loading
Personal Weather Stations






























Interactive Weather Map
Tropical Storm Tracking
New forecast layout! Learn more

10-Day Weather Forecast

Advertisements
Track Severe Weather on mobile